createdAt,value
2023-04-21T00:00:09.080Z,3.70
2023-04-21T00:02:39.088Z,3.70
2023-04-21T00:11:25.785Z,3.50
2023-04-21T00:25:48.181Z,3.40
2023-04-21T00:28:15.898Z,3.40
2023-04-21T00:36:50.194Z,3.30
2023-04-21T00:39:20.064Z,3.30
2023-04-21T00:41:49.371Z,3.20
2023-04-21T00:44:17.406Z,3.20
2023-04-21T00:52:56.540Z,3.10
2023-04-21T00:55:24.617Z,3.20
2023-04-21T00:57:55.973Z,3.20
2023-04-21T01:00:28.401Z,3.20
2023-04-21T01:02:56.899Z,3.20
2023-04-21T01:05:24.559Z,3.20
2023-04-21T01:07:53.322Z,3.30
2023-04-21T01:10:22.610Z,3.30
2023-04-21T01:13:16.446Z,3.30
2023-04-21T01:19:07.267Z,3.30
2023-04-21T01:21:40.853Z,3.30
2023-04-21T01:24:10.952Z,3.20
2023-04-21T01:26:37.751Z,3.20
2023-04-21T01:29:04.621Z,3.10
2023-04-21T01:31:33.460Z,3.10
2023-04-21T01:34:04.142Z,3.00
2023-04-21T01:36:31.270Z,2.90
2023-04-21T01:38:58.610Z,2.80
2023-04-21T01:41:25.868Z,2.80
2023-04-21T01:43:57.736Z,2.80
2023-04-21T01:46:24.402Z,2.80
2023-04-21T01:48:55.760Z,2.80
2023-04-21T01:54:22.265Z,2.80
2023-04-21T01:56:48.976Z,2.70
2023-04-21T01:59:16.186Z,2.70
2023-04-21T02:10:26.712Z,2.60
2023-04-21T02:12:55.336Z,2.70
2023-04-21T02:15:22.765Z,2.70
2023-04-21T02:17:49.615Z,2.70
2023-04-21T02:20:16.241Z,2.70
2023-04-21T02:22:44.249Z,2.70
2023-04-21T02:25:20.948Z,2.60
2023-04-21T02:33:45.900Z,2.50
2023-04-21T02:36:13.008Z,2.50
2023-04-21T02:38:44.642Z,2.50
2023-04-21T02:44:03.556Z,2.50
2023-04-21T02:46:34.124Z,2.50
2023-04-21T02:49:00.924Z,2.50
2023-04-21T02:54:19.944Z,2.50
2023-04-21T02:56:48.084Z,2.50
2023-04-21T03:02:10.941Z,2.40
2023-04-21T03:07:50.761Z,2.50
2023-04-21T03:13:09.468Z,2.60
2023-04-21T03:15:36.147Z,2.60
2023-04-21T03:18:06.140Z,2.60
2023-04-21T03:20:34.094Z,2.60
2023-04-21T03:23:01.998Z,2.70
2023-04-21T03:25:30.097Z,2.60
2023-04-21T03:27:56.831Z,2.70
2023-04-21T03:30:26.064Z,2.70
2023-04-21T03:32:54.876Z,2.70
2023-04-21T03:35:23.041Z,2.70
2023-04-21T03:37:55.863Z,2.70
2023-04-21T03:40:22.821Z,2.60
2023-04-21T03:42:50.160Z,2.60
2023-04-21T03:45:21.672Z,2.60
2023-04-21T03:47:56.215Z,2.60
2023-04-21T03:50:25.176Z,2.50
2023-04-21T03:52:54.065Z,2.50
2023-04-21T03:55:26.033Z,2.50
2023-04-21T03:57:52.741Z,2.40
2023-04-21T04:03:20.507Z,2.30
2023-04-21T04:05:49.396Z,2.30
2023-04-21T04:08:16.264Z,2.30
2023-04-21T04:10:44.516Z,2.20
2023-04-21T04:13:11.326Z,2.20
2023-04-21T04:15:40.664Z,2.20
2023-04-21T04:24:08.122Z,2.20
2023-04-21T04:26:37.379Z,2.20
2023-04-21T04:29:09.808Z,2.20
2023-04-21T04:31:41.283Z,2.20
2023-04-21T04:34:12.785Z,2.20
2023-04-21T04:39:39.653Z,2.30
2023-04-21T04:42:11.005Z,2.30
2023-04-21T04:44:40.844Z,2.30
2023-04-21T04:47:14.856Z,2.30
2023-04-21T04:49:42.845Z,2.30
2023-04-21T04:52:13.857Z,2.30
2023-04-21T04:54:43.166Z,2.30
2023-04-21T04:57:10.171Z,2.40
2023-04-21T04:59:40.505Z,2.40
2023-04-21T05:02:07.442Z,2.40
2023-04-21T05:04:34.389Z,2.50
2023-04-21T05:07:02.798Z,2.50
2023-04-21T05:09:29.537Z,2.50
2023-04-21T05:11:56.258Z,2.60
2023-04-21T05:14:24.221Z,2.60
2023-04-21T05:16:53.049Z,2.60
2023-04-21T05:19:45.632Z,2.60
2023-04-21T05:22:23.883Z,2.60
2023-04-21T05:24:50.540Z,2.70
2023-04-21T05:27:18.318Z,2.70
2023-04-21T05:29:44.954Z,2.80
2023-04-21T05:32:11.820Z,2.80
2023-04-21T05:34:38.513Z,2.90
2023-04-21T05:37:06.979Z,3.00
2023-04-21T05:39:33.613Z,3.00
2023-04-21T05:42:04.072Z,3.10
2023-04-21T05:47:08.058Z,3.30
2023-04-21T06:01:38.250Z,4.20
2023-04-21T06:04:05.390Z,4.30
2023-04-21T06:07:11.070Z,4.40
2023-04-21T06:10:10.610Z,4.50
2023-04-21T06:15:34.043Z,4.70
2023-04-21T06:18:03.254Z,4.80
2023-04-21T06:20:29.990Z,4.90
2023-04-21T06:22:58.691Z,5.00
2023-04-21T06:25:26.025Z,5.10
2023-04-21T06:27:55.903Z,5.10
2023-04-21T06:30:25.831Z,5.20
2023-04-21T06:32:56.125Z,5.20
2023-04-21T06:38:21.601Z,5.30
2023-04-21T06:40:48.274Z,5.30
2023-04-21T06:43:15.677Z,5.40
2023-04-21T06:45:48.189Z,5.40
2023-04-21T06:48:15.408Z,5.50
2023-04-21T06:50:45.643Z,5.50
2023-04-21T06:53:25.050Z,5.60
2023-04-21T06:55:55.084Z,5.70
2023-04-21T06:58:26.075Z,5.80
2023-04-21T07:00:52.899Z,5.90
2023-04-21T07:03:24.331Z,6.10
2023-04-21T07:08:47.240Z,6.30
2023-04-21T07:11:17.234Z,6.50
2023-04-21T07:13:47.535Z,6.70
2023-04-21T07:16:14.998Z,6.80
2023-04-21T07:18:42.841Z,7.00
2023-04-21T07:23:55.248Z,7.30
2023-04-21T07:26:21.947Z,7.60
2023-04-21T07:28:59.256Z,7.70
2023-04-21T07:31:55.580Z,8.00
2023-04-21T07:40:20.094Z,8.40
2023-04-21T07:42:47.938Z,8.40
2023-04-21T07:45:14.545Z,8.40
2023-04-21T07:47:45.671Z,8.40
2023-04-21T07:50:12.392Z,8.50
2023-04-21T07:52:43.362Z,8.50
2023-04-21T07:55:09.998Z,8.70
2023-04-21T07:57:44.327Z,9.00
2023-04-21T08:00:11.765Z,9.10
2023-04-21T08:02:41.820Z,9.20
2023-04-21T08:05:08.946Z,9.20
2023-04-21T08:07:39.930Z,9.20
2023-04-21T08:10:10.356Z,9.20
2023-04-21T08:12:37.093Z,9.30
2023-04-21T08:15:07.172Z,9.40
2023-04-21T08:17:38.302Z,9.50
2023-04-21T08:20:11.093Z,9.70
2023-04-21T08:22:40.422Z,9.90
2023-04-21T08:40:32.515Z,11.60
2023-04-21T08:43:00.027Z,11.90
2023-04-21T08:45:29.923Z,12.10
2023-04-21T08:48:00.730Z,12.30
2023-04-21T08:50:29.961Z,12.50
2023-04-21T08:53:06.352Z,12.60
2023-04-21T08:55:37.526Z,12.80
2023-04-21T08:58:12.330Z,12.90
2023-04-21T09:00:41.486Z,13.10
2023-04-21T09:03:19.464Z,13.30
2023-04-21T09:06:06.609Z,13.50
2023-04-21T09:08:36.545Z,13.80
2023-04-21T09:11:08.275Z,14.00
2023-04-21T09:13:38.161Z,14.20
2023-04-21T09:16:17.450Z,14.40
2023-04-21T09:18:51.473Z,14.50
2023-04-21T09:21:20.357Z,14.70
2023-04-21T09:23:51.194Z,14.80
2023-04-21T09:26:43.259Z,15.00
2023-04-21T09:29:10.415Z,15.10
2023-04-21T09:35:19.175Z,15.50
2023-04-21T09:37:45.948Z,15.60
2023-04-21T09:40:14.539Z,15.80
2023-04-21T09:42:43.085Z,15.90
2023-04-21T09:45:29.115Z,16.00
2023-04-21T09:51:07.546Z,16.50
2023-04-21T10:02:22.945Z,17.10
2023-04-21T10:04:59.785Z,17.10
2023-04-21T10:10:40.517Z,17.30
2023-04-21T10:13:12.149Z,17.50
2023-04-21T10:15:40.658Z,17.80
2023-04-21T10:18:20.411Z,17.80
2023-04-21T10:20:57.702Z,17.90
2023-04-21T10:23:30.641Z,18.00
2023-04-21T10:26:20.771Z,18.20
2023-04-21T10:28:53.862Z,18.30
2023-04-21T10:31:22.537Z,18.40
2023-04-21T10:34:08.083Z,18.60
2023-04-21T10:36:45.248Z,18.60
2023-04-21T10:39:32.783Z,18.80
2023-04-21T10:42:26.545Z,18.70
2023-04-21T10:47:50.746Z,19.20
2023-04-21T10:50:26.954Z,19.40
2023-04-21T10:53:10.536Z,19.20
2023-04-21T10:56:03.544Z,19.50
2023-04-21T10:58:35.713Z,19.90
2023-04-21T11:01:02.663Z,19.70
2023-04-21T11:03:35.659Z,20.00
2023-04-21T11:06:18.491Z,19.90
2023-04-21T11:08:58.638Z,19.90
2023-04-21T11:11:26.333Z,20.00
2023-04-21T11:13:56.550Z,20.00
2023-04-21T11:16:24.533Z,20.20
2023-04-21T11:18:58.768Z,20.20
2023-04-21T11:21:25.704Z,20.30
2023-04-21T11:24:02.804Z,20.30
2023-04-21T11:26:39.283Z,20.20
2023-04-21T11:29:09.880Z,20.10
2023-04-21T11:31:57.244Z,20.20
2023-04-21T11:34:26.164Z,20.10
2023-04-21T11:36:53.516Z,20.20
2023-04-21T11:39:23.321Z,20.10
2023-04-21T11:41:51.224Z,20.10
2023-04-21T11:44:36.576Z,20.20
2023-04-21T11:47:38.530Z,20.20
2023-04-21T11:50:05.604Z,20.20
2023-04-21T11:52:37.738Z,20.10
2023-04-21T11:55:11.275Z,20.10
2023-04-21T12:00:39.199Z,20.30
2023-04-21T12:03:15.748Z,20.40
2023-04-21T12:05:44.947Z,20.60
2023-04-21T12:08:17.919Z,20.80
2023-04-21T12:10:50.581Z,20.80
2023-04-21T12:13:23.793Z,20.90
2023-04-21T12:15:54.489Z,21.10
2023-04-21T12:18:27.570Z,21.00
2023-04-21T12:20:59.781Z,21.20
2023-04-21T12:23:26.949Z,21.20
2023-04-21T12:25:53.707Z,21.20
2023-04-21T12:28:20.400Z,21.20
2023-04-21T12:30:47.034Z,21.10
2023-04-21T12:33:13.879Z,21.20
2023-04-21T12:35:40.786Z,21.40
2023-04-21T12:38:07.441Z,21.40
2023-04-21T12:46:22.014Z,21.50
2023-04-21T12:48:51.741Z,21.30
2023-04-21T12:51:21.056Z,21.10
2023-04-21T12:53:49.281Z,21.10
2023-04-21T12:56:19.625Z,21.20
2023-04-21T12:58:50.243Z,21.40
2023-04-21T13:01:24.977Z,21.50
2023-04-21T13:04:00.786Z,21.50
2023-04-21T13:06:28.038Z,21.50
2023-04-21T13:08:55.335Z,21.40
2023-04-21T13:11:24.272Z,21.60
2023-04-21T13:13:51.079Z,21.60
2023-04-21T13:16:22.406Z,21.80
2023-04-21T13:18:52.696Z,22.10
2023-04-21T13:21:19.606Z,22.20
2023-04-21T13:23:48.494Z,22.20
2023-04-21T13:26:15.472Z,22.30
2023-04-21T13:28:43.771Z,22.40
2023-04-21T13:31:11.355Z,22.60
2023-04-21T13:33:44.918Z,22.30
2023-04-21T13:36:14.482Z,22.30
2023-04-21T13:38:55.729Z,22.10
2023-04-21T13:41:22.666Z,22.10
2023-04-21T13:43:58.888Z,22.10
2023-04-21T13:46:26.714Z,22.10
2023-04-21T13:48:56.640Z,22.20
2023-04-21T13:51:25.041Z,22.30
2023-04-21T13:53:57.847Z,22.50
2023-04-21T13:56:25.255Z,22.50
2023-04-21T13:58:52.516Z,22.60
2023-04-21T14:01:21.868Z,22.70
2023-04-21T14:03:51.945Z,22.90
2023-04-21T14:06:18.927Z,23.10
2023-04-21T14:08:52.647Z,22.90
2023-04-21T14:11:19.496Z,22.90
2023-04-21T14:14:00.891Z,22.90
2023-04-21T14:16:34.020Z,22.90
2023-04-21T14:19:06.023Z,22.70
2023-04-21T14:21:38.071Z,22.60
2023-04-21T14:24:04.850Z,22.60
2023-04-21T14:26:35.222Z,22.80
2023-04-21T14:29:04.569Z,22.90
2023-04-21T14:31:31.401Z,22.90
2023-04-21T14:33:58.065Z,22.70
2023-04-21T14:36:26.554Z,22.50
2023-04-21T14:38:56.727Z,22.20
2023-04-21T14:41:23.390Z,22.10
2023-04-21T14:43:53.110Z,22.20
2023-04-21T14:46:23.082Z,22.30
2023-04-21T14:48:51.436Z,22.40
2023-04-21T14:51:18.901Z,22.50
2023-04-21T14:53:46.352Z,22.30
2023-04-21T14:56:13.305Z,22.00
2023-04-21T14:58:41.337Z,21.90
2023-04-21T15:01:08.316Z,21.90
2023-04-21T15:03:38.390Z,21.80
2023-04-21T15:06:05.843Z,21.60
2023-04-21T15:08:32.500Z,21.20
2023-04-21T15:11:01.113Z,20.90
2023-04-21T15:13:30.271Z,20.70
2023-04-21T15:16:04.921Z,20.50
2023-04-21T15:18:32.321Z,20.20
2023-04-21T15:20:59.049Z,20.10
2023-04-21T15:23:28.373Z,20.00
2023-04-21T15:26:00.163Z,19.90
2023-04-21T15:28:58.886Z,19.90
2023-04-21T15:31:25.530Z,19.80
2023-04-21T15:33:53.271Z,19.70
2023-04-21T15:36:22.852Z,19.70
2023-04-21T15:38:49.563Z,19.60
2023-04-21T15:41:24.644Z,19.50
2023-04-21T15:43:51.937Z,19.40
2023-04-21T15:46:23.387Z,19.30
2023-04-21T15:48:52.407Z,19.30
2023-04-21T15:51:19.474Z,19.20
2023-04-21T15:53:48.589Z,19.20
2023-04-21T15:56:15.939Z,19.20
2023-04-21T15:58:44.541Z,19.10
2023-04-21T16:01:13.523Z,19.10
2023-04-21T16:12:43.800Z,18.90
2023-04-21T16:15:27.638Z,18.80
2023-04-21T16:17:54.461Z,18.70
2023-04-21T16:20:23.640Z,18.70
2023-04-21T16:22:54.588Z,18.70
2023-04-21T16:25:21.839Z,18.60
2023-04-21T16:27:48.533Z,18.50
2023-04-21T16:30:16.978Z,18.30
2023-04-21T16:32:45.897Z,18.20
2023-04-21T16:35:15.093Z,18.20
2023-04-21T16:37:43.525Z,18.30
2023-04-21T16:40:11.582Z,18.30
2023-04-21T16:42:38.407Z,18.30
2023-04-21T16:45:05.824Z,18.40
2023-04-21T16:47:42.526Z,18.40
2023-04-21T16:50:10.852Z,18.40
2023-04-21T16:52:39.102Z,18.30
2023-04-21T16:55:12.166Z,18.30
2023-04-21T16:57:40.828Z,18.20
2023-04-21T17:00:10.998Z,18.10
2023-04-21T17:02:40.235Z,18.10
2023-04-21T17:05:15.357Z,18.00
2023-04-21T17:07:44.187Z,17.70
2023-04-21T17:10:11.266Z,17.60
2023-04-21T17:12:47.075Z,17.50
2023-04-21T17:15:19.159Z,17.40
2023-04-21T17:17:48.870Z,17.20
2023-04-21T17:20:15.623Z,17.10
2023-04-21T17:22:45.639Z,17.00
2023-04-21T17:25:20.787Z,16.80
2023-04-21T17:27:47.608Z,16.70
2023-04-21T17:30:18.339Z,16.60
2023-04-21T17:32:51.588Z,16.50
2023-04-21T17:35:28.138Z,16.20
2023-04-21T17:37:58.360Z,16.00
2023-04-21T17:40:25.615Z,15.70
2023-04-21T17:42:52.372Z,15.60
2023-04-21T17:45:19.302Z,15.40
2023-04-21T17:47:46.652Z,15.10
2023-04-21T17:50:18.139Z,14.90
2023-04-21T17:52:44.813Z,14.70
2023-04-21T17:55:15.261Z,14.60
2023-04-21T17:57:47.104Z,14.70
2023-04-21T18:00:15.390Z,14.70
2023-04-21T18:02:44.947Z,14.60
2023-04-21T18:05:16.408Z,14.70
2023-04-21T18:07:43.509Z,14.60
2023-04-21T18:10:10.878Z,14.40
2023-04-21T18:12:37.621Z,14.30
2023-04-21T18:15:07.294Z,14.10
2023-04-21T18:17:38.003Z,14.10
2023-04-21T18:20:06.327Z,14.20
2023-04-21T18:22:34.229Z,14.20
2023-04-21T18:25:02.728Z,14.30
2023-04-21T18:27:36.075Z,14.20
2023-04-21T18:30:10.158Z,14.20
2023-04-21T18:32:39.883Z,14.20
2023-04-21T18:35:08.355Z,14.20
2023-04-21T18:37:36.339Z,14.20
2023-04-21T18:40:04.988Z,14.20
2023-04-21T18:42:32.747Z,14.10
2023-04-21T18:45:04.264Z,14.00
2023-04-21T18:50:33.857Z,13.70
2023-04-21T18:53:02.609Z,13.40
2023-04-21T19:01:37.265Z,13.00
2023-04-21T19:04:04.229Z,12.90
2023-04-21T19:12:28.055Z,12.60
2023-04-21T19:14:55.235Z,12.50
2023-04-21T19:17:26.181Z,12.50
2023-04-21T19:19:53.329Z,12.40
2023-04-21T19:22:52.456Z,12.40
2023-04-21T19:25:22.858Z,12.40
2023-04-21T19:27:54.358Z,12.40
2023-04-21T19:30:22.091Z,12.30
2023-04-21T19:32:49.040Z,12.20
2023-04-21T19:41:56.745Z,12.10
2023-04-21T19:44:26.977Z,12.10
2023-04-21T19:46:53.704Z,12.10
2023-04-21T19:49:20.342Z,12.10
2023-04-21T20:00:19.368Z,11.90
2023-04-21T20:05:35.773Z,11.80
2023-04-21T20:08:02.565Z,11.80
2023-04-21T20:10:31.966Z,11.80
2023-04-21T20:13:06.555Z,11.70
2023-04-21T20:21:24.823Z,11.60
2023-04-21T20:23:51.872Z,11.60
2023-04-21T20:26:18.626Z,11.50
2023-04-21T20:28:45.446Z,11.50
2023-04-21T20:31:12.624Z,11.50
2023-04-21T20:33:39.354Z,11.60
2023-04-21T20:36:11.904Z,11.50
2023-04-21T20:38:38.605Z,11.60
2023-04-21T20:41:05.222Z,11.60
2023-04-21T20:43:32.393Z,11.70
2023-04-21T20:46:03.671Z,11.70
2023-04-21T20:48:31.508Z,11.80
2023-04-21T20:51:02.670Z,11.80
2023-04-21T20:53:29.389Z,11.80
2023-04-21T20:55:56.307Z,11.80
2023-04-21T20:58:26.562Z,11.70
2023-04-21T21:01:25.717Z,11.60
2023-04-21T21:03:53.644Z,11.60
2023-04-21T21:09:13.310Z,11.60
2023-04-21T21:11:39.873Z,11.60
2023-04-21T21:14:07.072Z,11.60
2023-04-21T21:16:34.954Z,11.60
2023-04-21T21:19:01.526Z,11.60
2023-04-21T21:21:31.743Z,11.60
2023-04-21T21:24:01.765Z,11.60
2023-04-21T21:26:29.501Z,11.60
2023-04-21T21:28:56.767Z,11.70
2023-04-21T21:31:24.792Z,11.70
2023-04-21T21:33:51.680Z,11.70
2023-04-21T21:36:22.466Z,11.70
2023-04-21T21:38:50.883Z,11.70
2023-04-21T21:41:19.628Z,11.60
2023-04-21T21:43:46.692Z,11.60
2023-04-21T21:46:38.374Z,11.70
2023-04-21T21:49:09.947Z,11.70
2023-04-21T21:51:43.243Z,11.70
2023-04-21T21:54:12.480Z,11.70
2023-04-21T21:56:39.077Z,11.70
2023-04-21T21:59:07.132Z,11.70
2023-04-21T22:01:33.799Z,11.70
2023-04-21T22:04:02.830Z,11.70
2023-04-21T22:09:21.281Z,11.70
2023-04-21T22:11:51.610Z,11.70
2023-04-21T22:14:23.383Z,11.70
2023-04-21T22:16:52.699Z,11.70
2023-04-21T22:19:19.911Z,11.70
2023-04-21T22:21:46.623Z,11.60
2023-04-21T22:24:13.709Z,11.60
2023-04-21T22:26:42.585Z,11.50
2023-04-21T22:29:11.290Z,11.50
2023-04-21T22:31:40.673Z,11.40
2023-04-21T22:34:08.495Z,11.40
2023-04-21T22:36:37.254Z,11.40
2023-04-21T22:39:06.377Z,11.40
2023-04-21T22:41:35.577Z,11.40
2023-04-21T22:44:03.936Z,11.40
2023-04-21T22:46:33.248Z,11.40
2023-04-21T22:49:01.599Z,11.40
2023-04-21T22:51:29.139Z,11.40
2023-04-21T22:53:56.008Z,11.40
2023-04-21T22:56:22.764Z,11.40
2023-04-21T22:58:52.685Z,11.40
2023-04-21T23:01:20.392Z,11.40
2023-04-21T23:03:47.138Z,11.30
2023-04-21T23:06:18.773Z,11.30
2023-04-21T23:08:45.622Z,11.30
2023-04-21T23:11:12.775Z,11.20
2023-04-21T23:13:39.616Z,11.20
2023-04-21T23:16:10.779Z,11.10
2023-04-21T23:18:37.402Z,11.10
2023-04-21T23:21:04.066Z,11.00
2023-04-21T23:23:32.677Z,11.00
2023-04-21T23:25:59.285Z,11.00
2023-04-21T23:28:25.965Z,11.00
2023-04-21T23:30:52.752Z,10.90
2023-04-21T23:33:19.702Z,10.90
2023-04-21T23:35:46.444Z,10.90
2023-04-21T23:38:13.105Z,10.90
2023-04-21T23:40:40.905Z,10.90
2023-04-21T23:43:11.361Z,10.90
2023-04-21T23:45:40.939Z,10.80
2023-04-21T23:48:07.659Z,10.80
2023-04-21T23:50:34.485Z,10.80
2023-04-21T23:53:03.723Z,10.80
